Share

Miles City, MT

Wiley (KMLS) Elev 2628 ft | 46.43 °N, 105.88 °W | Change Station

Current weather conditions updated 12 minutes ago

Clear
Clear
36 °F
Feels Like 29 °F
N
9
Wind Variable Wind from SW
Sunrise 6:09 AM
Sunset 7:56 PM
Moon Waning Gibbous

Today is forecast to be nearly the same temperature as yesterday.

Pressure 29.87 in
Visibility 10.0 miles
Clouds Clear
Windchill 29 °F
Dew Point 32 °F
Humidity 86%
Rainfall 0.08 in
Snow Depth Not available.
UV 0 out of 16
Pollen 9.20 out of 12
Air Quality Not available.
Flu Activity Sporadic
METAR KMLS 190653Z AUTO 23008KT 10SM CLR 02/00 A2986 RMK AO2 SLP114 T00220000 401890022

More Conditions Fewer Conditions

Pressure 29.87 in
Visibility 10.0 miles
Clouds Clear
Windchill 29 °F
Dew Point 32 °F
Humidity 86%
Rainfall 0.08 in
Snow Depth Not available.
UV 0 out of 16
Pollen 9.20 out of 12
Air Quality Not available.
Flu Activity Sporadic
METAR KMLS 190653Z AUTO 23008KT 10SM CLR 02/00 A2986 RMK AO2 SLP114 T00220000 401890022

More Conditions Fewer Conditions

10-Day Weather Forecast

Almanac

Astronomy

Apr. 19, 2014 Rise Set
Actual Time 6:09 AM MDT 7:56 PM MDT
Civil Twilight 5:37 AM MDT 8:28 PM MDT
Nautical Twilight 4:58 AM MDT 9:07 PM MDT
Astronomical Twilight 4:15 AM MDT 9:50 PM MDT
Moon No Moon Rise 9:22 AM MDT
Length of Visible Light 14h 51m
Length of Day
13h 47m
Tomorrow will be 3m 5s longer.
Waning Gibbous, 82% of the Moon is Illuminated
Today
Waning Gibbous
Apr 22
Last Quarter
Apr 29
New
May 6
First Quarter
May 14
Full

Today's Extremes

State Highs State Lows

Community

  • Sunset Silhouettes
    Sunset Silhouettes
  • FL sunset Perico Isle
    FL sunset Perico Isle
  • Cloudy spring view
    Cloudy spring view
  • Old barn
    Old barn
  • What's for Lunch?
    What's for Lunch?

WunderPhotos

Upload Photos

1,702,653 photos uploaded!

WunderBlogs® & News

Nearby

Snow Depth

Station Depth Elevation
Crystal Lake 58 in 6050 ft
Cole Creek 76 in 7850 ft
Burnt Mountain 27 in 5880 ft
Daisy Peak 50 in 7600 ft
Rocky Boy 7 in 4700 ft

Coastal Water Temperatures

Place Temperature
No Stations Reporting

Earthquake Activity

City Distance Mag. Time & Date
No recent earthquake activity has been reported nearby.
Minimum magnitude displayed is 2.5.

Nearby Weather Stations

Station Location Temp. Windchill Dew Point Humidity Wind Precip. Elev Updated Type
HADS YELLOWSTONE RIVER AT HIGHWAY BRI MT, Miles City, MT 44 °F 44 °F - - North  at  - 0.00 in / hr 2333 ft 12:00 AM MDT MADIS
MesoWest Government Hill , Miles City, MT 42 °F 37 °F 30 °F 61% West  at  8 mph 0.00 in / hr 3129 ft 12:20 AM MDT MADIS
MesoWest Sweeney Creek I-94 MP 112.6 , Hathaway, MT 43 °F 37 °F 32 °F 64% SW  at  12 mph 0.00 in / hr 2598 ft 11:56 PM MDT MADIS

Show More Stations Show Fewer Stations

What do you think?

We're not finished. Please let us know what you like, what you don't like, and what you are still missing.